createdAt,value
2022-12-15T00:00:00.191Z,6.1
2022-12-15T00:02:02.649Z,4.4
2022-12-15T00:04:02.538Z,4.1
2022-12-15T00:06:02.336Z,2.4
2022-12-15T00:08:04.817Z,10.8
2022-12-15T00:10:04.701Z,6.8
2022-12-15T00:12:04.571Z,5.6
2022-12-15T00:14:06.968Z,6.1
2022-12-15T00:16:06.951Z,8.7
2022-12-15T00:18:06.741Z,6.4
2022-12-15T00:26:57.817Z,4.9
2022-12-15T00:28:57.707Z,6.2
2022-12-15T00:31:02.084Z,4.1
2022-12-15T00:33:00.050Z,1.2
2022-12-15T00:35:00.101Z,3.8
2022-12-15T00:36:59.792Z,5.6
2022-12-15T00:39:04.081Z,6.8
2022-12-15T00:41:02.075Z,5.5
2022-12-15T00:43:01.971Z,4
2022-12-15T00:47:04.336Z,5.7
2022-12-15T00:57:55.250Z,5.3
2022-12-15T00:59:55.223Z,6.4
2022-12-15T01:01:55.202Z,4.2
2022-12-15T01:03:57.590Z,6.1
2022-12-15T01:05:57.397Z,5.5
2022-12-15T01:07:57.273Z,7.2
2022-12-15T01:09:59.702Z,7
2022-12-15T01:11:59.624Z,7.3
2022-12-15T01:16:01.939Z,2.9
2022-12-15T01:18:01.740Z,7
2022-12-15T01:20:01.596Z,7.9
2022-12-15T01:22:04.025Z,9.4
2022-12-15T01:24:03.937Z,9.9
2022-12-15T01:26:03.804Z,7.1
2022-12-15T01:28:07.257Z,7
2022-12-15T01:30:07.147Z,7.6
2022-12-15T01:32:07.127Z,7.7
2022-12-15T01:34:09.679Z,5.9
2022-12-15T01:36:09.526Z,8.3
2022-12-15T01:42:11.729Z,8.2
2022-12-15T01:48:13.921Z,8.1
2022-12-15T01:50:13.780Z,6.4
2022-12-15T01:54:16.108Z,9.9
2022-12-15T01:56:15.968Z,6.5
2022-12-15T02:01:23.911Z,4.7
2022-12-15T02:03:23.662Z,4.3
2022-12-15T02:05:23.571Z,4.2
2022-12-15T02:07:25.921Z,7.8
2022-12-15T02:09:25.809Z,3.4
2022-12-15T02:11:25.684Z,6
2022-12-15T02:16:35.000Z,3.7
2022-12-15T02:18:34.837Z,5.2
2022-12-15T02:20:34.689Z,9.8
2022-12-15T02:28:41.943Z,5.9
2022-12-15T02:32:44.284Z,7.4
2022-12-15T02:34:44.153Z,12.6
2022-12-15T02:36:44.007Z,6.3
2022-12-15T02:38:46.442Z,4.4
2022-12-15T02:42:46.181Z,4.7
2022-12-15T02:44:48.597Z,8.1
2022-12-15T02:46:48.459Z,7.5
2022-12-15T02:48:48.350Z,6.8
2022-12-15T02:50:50.778Z,6.9
2022-12-15T02:52:50.643Z,12.7
2022-12-15T02:54:50.505Z,5.9
2022-12-15T02:56:52.961Z,6.9
2022-12-15T03:16:22.420Z,9.1
2022-12-15T03:18:22.253Z,10.4
2022-12-15T03:20:22.114Z,4.6
2022-12-15T03:22:24.527Z,6.9
2022-12-15T03:24:24.422Z,5.7
2022-12-15T03:26:24.276Z,3
2022-12-15T03:31:25.991Z,6.7
2022-12-15T03:33:25.781Z,7.8
2022-12-15T03:35:25.680Z,6.8
2022-12-15T03:37:28.106Z,7.2
2022-12-15T03:39:28.018Z,8.7
2022-12-15T03:41:27.875Z,8.1
2022-12-15T03:43:30.822Z,7.3
2022-12-15T03:45:30.158Z,8.1
2022-12-15T03:49:32.598Z,7.7
2022-12-15T03:51:32.482Z,7.8
2022-12-15T03:53:32.770Z,6
2022-12-15T03:55:34.742Z,6.5
2022-12-15T03:57:34.654Z,6.6
2022-12-15T03:59:34.517Z,9.7
2022-12-15T04:01:37.155Z,10.2
2022-12-15T04:03:36.884Z,8.3
2022-12-15T04:05:36.691Z,7.4
2022-12-15T04:07:39.144Z,8.8
2022-12-15T04:09:39.015Z,5.7
2022-12-15T04:11:38.886Z,7
2022-12-15T04:13:41.307Z,8.9
2022-12-15T04:21:43.488Z,10.1
2022-12-15T04:23:43.342Z,9.2
2022-12-15T04:25:45.784Z,8.9
2022-12-15T04:27:45.670Z,5.7
2022-12-15T04:29:45.502Z,9.3
2022-12-15T04:31:47.961Z,10.6
2022-12-15T04:33:47.824Z,11.2
2022-12-15T04:44:38.746Z,5
2022-12-15T04:46:38.654Z,10.4
2022-12-15T04:48:38.519Z,10.2
2022-12-15T04:50:40.940Z,10.4
2022-12-15T04:52:40.810Z,5
2022-12-15T04:54:40.685Z,14.4
2022-12-15T04:56:43.136Z,11.8
2022-12-15T04:58:43.029Z,7.8
2022-12-15T05:00:42.898Z,8.4
2022-12-15T05:02:45.437Z,6
2022-12-15T05:04:45.301Z,6.8
2022-12-15T05:06:45.050Z,9.8
2022-12-15T05:08:47.526Z,9.1
2022-12-15T05:10:47.502Z,8.7
2022-12-15T05:12:47.347Z,9.6
2022-12-15T05:14:49.761Z,8.9
2022-12-15T05:16:49.694Z,5.9
2022-12-15T05:18:49.525Z,11.7
2022-12-15T05:20:51.932Z,9.2
2022-12-15T05:22:51.828Z,12.1
2022-12-15T05:24:51.695Z,11.3
2022-12-15T05:26:54.124Z,7.2
2022-12-15T05:28:54.038Z,6.1
2022-12-15T05:30:54.026Z,10.1
2022-12-15T05:35:56.123Z,11.9
2022-12-15T05:37:55.921Z,5.7
2022-12-15T05:39:55.891Z,12.1
2022-12-15T05:41:58.328Z,7.9
2022-12-15T05:43:58.197Z,10.5
2022-12-15T05:45:58.113Z,4.6
2022-12-15T05:51:08.305Z,7.5
2022-12-15T05:53:08.216Z,8.9
2022-12-15T05:55:08.092Z,8.5
2022-12-15T05:57:10.548Z,4.9
2022-12-15T05:59:10.415Z,9.7
2022-12-15T06:01:10.307Z,11
2022-12-15T06:06:18.393Z,5.3
2022-12-15T06:08:18.351Z,11.6
2022-12-15T06:10:18.288Z,7.2
2022-12-15T06:12:20.732Z,6.3
2022-12-15T06:14:20.746Z,7.4
2022-12-15T06:16:20.606Z,7.1
2022-12-15T06:18:22.929Z,6.5
2022-12-15T06:20:22.828Z,7.4
2022-12-15T06:22:22.729Z,9.2
2022-12-15T06:24:25.123Z,10.6
2022-12-15T06:26:25.014Z,12.4
2022-12-15T06:28:24.878Z,3.9
2022-12-15T06:30:27.332Z,12.4
2022-12-15T06:34:27.129Z,11.5
2022-12-15T06:36:29.537Z,8.1
2022-12-15T06:38:29.437Z,10.2
2022-12-15T06:40:32.125Z,10.5
2022-12-15T06:42:31.761Z,8.3
2022-12-15T06:44:31.639Z,7.6
2022-12-15T06:48:33.930Z,9.1
2022-12-15T06:50:33.798Z,14.5
2022-12-15T06:58:35.913Z,6.4
2022-12-15T07:02:38.382Z,10.3
2022-12-15T07:06:40.571Z,11.4
2022-12-15T07:08:41.792Z,5.9
2022-12-15T07:10:40.366Z,11.6
2022-12-15T07:12:42.824Z,7.2
2022-12-15T07:14:42.695Z,6.3
2022-12-15T07:16:42.701Z,3.1
2022-12-15T07:18:45.029Z,8.5
2022-12-15T07:20:44.934Z,9.1
2022-12-15T07:22:44.802Z,7.3
2022-12-15T07:24:47.224Z,8.2
2022-12-15T07:26:49.074Z,9.7
2022-12-15T07:28:46.997Z,4.7
2022-12-15T07:30:49.438Z,8.1
2022-12-15T07:32:50.400Z,9.1
2022-12-15T07:34:49.189Z,8.3
2022-12-15T07:36:52.695Z,12.6
2022-12-15T07:38:51.876Z,8.3
2022-12-15T07:40:51.382Z,9.4
2022-12-15T07:49:42.463Z,4.8
2022-12-15T07:51:42.380Z,4.5
2022-12-15T07:53:42.253Z,9.1
2022-12-15T07:56:06.222Z,9.7
2022-12-15T07:57:44.587Z,6.9
2022-12-15T08:06:46.768Z,6.7
2022-12-15T08:10:49.060Z,7.8
2022-12-15T08:14:49.955Z,8.2
2022-12-15T08:18:51.092Z,8
2022-12-15T08:20:50.953Z,6.6
2022-12-15T08:27:56.842Z,8.2
2022-12-15T08:29:56.790Z,8.2
2022-12-15T08:31:59.337Z,4.8
2022-12-15T08:38:05.194Z,4.2
2022-12-15T08:40:01.285Z,11.4
2022-12-15T08:42:01.128Z,10.2
2022-12-15T08:44:03.599Z,6.4
2022-12-15T08:46:03.522Z,7
2022-12-15T08:48:03.445Z,10.9
2022-12-15T08:50:05.886Z,6.6
2022-12-15T08:52:05.754Z,6.4
2022-12-15T08:54:05.630Z,8.1
2022-12-15T08:56:08.088Z,7.3
2022-12-15T08:58:07.944Z,10
2022-12-15T09:00:07.823Z,8.4
2022-12-15T09:05:16.280Z,17.8
2022-12-15T09:07:16.146Z,12.6
2022-12-15T09:09:16.031Z,13.6
2022-12-15T09:11:18.529Z,10.2
2022-12-15T09:13:18.416Z,9.1
2022-12-15T09:17:20.780Z,13.5
2022-12-15T09:19:20.644Z,14.1
2022-12-15T09:21:20.535Z,16.4
2022-12-15T09:32:51.154Z,10.2
2022-12-15T09:34:51.046Z,10.2
2022-12-15T09:39:13.172Z,19.9
2022-12-15T09:41:13.100Z,19.6
2022-12-15T09:43:46.753Z,19
2022-12-15T09:49:16.188Z,19.9
2022-12-15T09:51:16.069Z,17.4
2022-12-15T09:53:45.463Z,16.2
2022-12-15T09:55:15.923Z,11.6
2022-12-15T09:57:15.804Z,10.7
2022-12-15T09:59:19.154Z,10.3
2022-12-15T10:01:19.096Z,10.8
2022-12-15T10:03:19.103Z,10.5
2022-12-15T10:13:21.807Z,9.6
2022-12-15T10:15:21.612Z,8.9
2022-12-15T10:17:21.567Z,8.6
2022-12-15T10:19:21.371Z,7.3
2022-12-15T10:21:21.235Z,7.8
2022-12-15T10:23:21.125Z,8.2
2022-12-15T10:25:29.299Z,8.3
2022-12-15T10:27:24.356Z,8.6
2022-12-15T10:29:24.172Z,7.9
2022-12-15T10:31:24.043Z,7.2
2022-12-15T10:32:25.663Z,8.2
2022-12-15T10:34:25.568Z,7
2022-12-15T10:36:25.355Z,6.5
2022-12-15T10:38:25.206Z,7.8
2022-12-15T10:40:28.514Z,8.3
2022-12-15T10:42:28.350Z,7.8
2022-12-15T10:44:32.215Z,8.5
2022-12-15T10:54:30.676Z,7.7
2022-12-15T10:56:33.509Z,7.2
2022-12-15T10:58:30.348Z,6.8
2022-12-15T11:00:30.060Z,7.8
2022-12-15T11:02:30.131Z,8.6
2022-12-15T11:04:29.779Z,7.8
2022-12-15T11:06:29.376Z,6.8
2022-12-15T11:08:32.546Z,8.2
2022-12-15T11:10:32.306Z,7.8
2022-12-15T11:12:32.130Z,6.9
2022-12-15T11:14:32.003Z,7.2
2022-12-15T11:16:31.799Z,7.2
2022-12-15T11:18:31.645Z,7.7
2022-12-15T11:20:31.422Z,6.6
2022-12-15T11:22:34.666Z,6.9
2022-12-15T11:24:34.394Z,7
2022-12-15T11:26:34.194Z,7.5
2022-12-15T11:27:35.738Z,7.7
2022-12-15T11:29:35.611Z,8.3
2022-12-15T11:31:35.418Z,7.1
2022-12-15T11:33:35.588Z,7.8
2022-12-15T11:35:38.538Z,6.7
2022-12-15T11:37:38.344Z,7.8
2022-12-15T11:39:38.083Z,6.9
2022-12-15T11:41:37.861Z,8.5
2022-12-15T11:43:37.656Z,6.7
2022-12-15T11:45:37.455Z,6.1
2022-12-15T11:47:37.214Z,6.7
2022-12-15T11:49:41.476Z,6.9
2022-12-15T11:51:40.247Z,6.9
2022-12-15T11:53:40.063Z,7.3
2022-12-15T11:55:41.569Z,8
2022-12-15T11:57:39.740Z,7.6
2022-12-15T11:59:39.596Z,7
2022-12-15T12:01:39.487Z,5.6
2022-12-15T12:03:42.777Z,8.4
2022-12-15T12:05:42.637Z,7.5
2022-12-15T12:07:42.543Z,7.5
2022-12-15T12:09:42.334Z,7.5
2022-12-15T12:11:42.168Z,6.7
2022-12-15T12:13:42.045Z,7.3
2022-12-15T12:15:41.881Z,6.6
2022-12-15T12:21:44.706Z,6.9
2022-12-15T12:22:46.349Z,7.7
2022-12-15T12:24:48.801Z,7.5
2022-12-15T12:26:46.040Z,7.2
2022-12-15T12:28:45.892Z,7.2
2022-12-15T12:32:50.593Z,6.8
2022-12-15T12:34:51.169Z,7.4
2022-12-15T12:36:48.995Z,6.8
2022-12-15T12:38:50.660Z,6.6
2022-12-15T12:40:48.394Z,7.2
2022-12-15T12:42:48.244Z,7.1
2022-12-15T12:44:51.593Z,8.5
2022-12-15T12:46:51.485Z,7.4
2022-12-15T12:50:51.187Z,7
2022-12-15T12:52:51.046Z,6.7
2022-12-15T12:54:50.901Z,6.9
2022-12-15T12:56:50.762Z,7.7
2022-12-15T12:58:54.127Z,8.2
2022-12-15T13:00:56.909Z,6.6
2022-12-15T13:02:53.928Z,7.9
2022-12-15T13:04:53.748Z,8.2
2022-12-15T13:06:53.586Z,8.4
2022-12-15T13:08:53.450Z,7.9
2022-12-15T13:10:53.349Z,8.2
2022-12-15T13:12:56.706Z,7.4
2022-12-15T13:14:56.591Z,8
2022-12-15T13:17:24.918Z,7.5
2022-12-15T13:19:18.425Z,8.5
2022-12-15T13:21:18.316Z,8.3
2022-12-15T13:23:18.165Z,10.1
2022-12-15T13:25:21.547Z,8.5
2022-12-15T13:27:21.433Z,9.1
2022-12-15T13:29:21.331Z,8.8
2022-12-15T13:33:21.088Z,6.4
2022-12-15T13:35:20.967Z,8.3
2022-12-15T13:37:20.888Z,8.2
2022-12-15T13:39:24.240Z,9.5
2022-12-15T13:41:24.092Z,8.7
2022-12-15T13:43:23.976Z,7.3
2022-12-15T13:45:23.906Z,9.3
2022-12-15T13:47:23.769Z,7.1
2022-12-15T13:49:23.632Z,8.1
2022-12-15T13:51:23.520Z,8.9
2022-12-15T13:53:26.899Z,11.1
2022-12-15T13:55:28.287Z,12.4
2022-12-15T13:57:26.666Z,8.9
2022-12-15T14:03:26.497Z,13.5
2022-12-15T14:05:26.282Z,10.5
2022-12-15T14:07:29.547Z,15.5
2022-12-15T14:09:29.473Z,12.1
2022-12-15T14:11:51.843Z,9
2022-12-15T14:16:30.942Z,12.2
2022-12-15T14:18:30.691Z,10.2
2022-12-15T14:20:34.053Z,18.9
2022-12-15T14:24:39.879Z,13
2022-12-15T14:26:33.709Z,11.4
2022-12-15T14:32:33.408Z,12.5
2022-12-15T14:34:36.810Z,12.5
2022-12-15T14:36:36.690Z,12
2022-12-15T14:38:36.598Z,13.1
2022-12-15T14:40:36.458Z,9.9
2022-12-15T14:42:36.316Z,12.1
2022-12-15T14:44:38.688Z,10.6
2022-12-15T14:46:36.143Z,11.2
2022-12-15T14:50:39.440Z,9.9
2022-12-15T14:52:39.357Z,5.1
2022-12-15T14:54:39.247Z,9.1
2022-12-15T14:56:39.127Z,9
2022-12-15T14:58:38.998Z,12.1
2022-12-15T15:00:38.924Z,12.6
2022-12-15T15:02:42.406Z,13.8
2022-12-15T15:03:05.367Z,7.6
2022-12-15T15:03:07.112Z,7.1
2022-12-15T15:04:42.185Z,11.1
2022-12-15T15:06:42.061Z,11
2022-12-15T15:07:43.751Z,12.3
2022-12-15T15:09:45.248Z,10.2
2022-12-15T15:11:45.133Z,11.2
2022-12-15T15:13:44.999Z,11.9
2022-12-15T15:15:48.396Z,13.5
2022-12-15T15:17:48.295Z,13.2
2022-12-15T15:19:48.182Z,11.9
2022-12-15T15:21:48.067Z,10.7
2022-12-15T15:23:47.933Z,9.5
2022-12-15T15:25:47.859Z,8.2
2022-12-15T15:27:47.773Z,8.4
2022-12-15T15:29:51.144Z,10.7
2022-12-15T15:31:51.057Z,11.2
2022-12-15T15:33:50.956Z,11.2
2022-12-15T15:35:50.813Z,9.8
2022-12-15T15:37:50.729Z,11.2
2022-12-15T15:39:50.617Z,9.4
2022-12-15T15:41:50.479Z,9.3
2022-12-15T15:43:53.889Z,10.8
2022-12-15T15:45:53.834Z,9.8
2022-12-15T15:47:56.139Z,9.4
2022-12-15T15:49:53.563Z,10.5
2022-12-15T15:53:53.384Z,12
2022-12-15T15:55:53.253Z,12.9
2022-12-15T15:57:56.631Z,11
2022-12-15T15:59:56.535Z,13.6
2022-12-15T16:01:56.622Z,17
2022-12-15T16:04:57.998Z,9.5
2022-12-15T16:06:57.927Z,12.2
2022-12-15T16:08:57.803Z,15.9
2022-12-15T16:11:01.208Z,14.2
2022-12-15T16:13:01.114Z,14.2
2022-12-15T16:15:00.994Z,13.5
2022-12-15T16:17:00.911Z,16.3
2022-12-15T16:19:00.788Z,17.3
2022-12-15T16:21:00.676Z,15.5
2022-12-15T16:23:00.562Z,16.3
2022-12-15T16:25:03.935Z,14.7
2022-12-15T16:27:03.853Z,15
2022-12-15T16:29:03.711Z,18
2022-12-15T16:31:03.672Z,19.3
2022-12-15T16:33:03.521Z,21.3
2022-12-15T16:35:03.442Z,21.6
2022-12-15T16:39:06.665Z,18.1
2022-12-15T16:41:06.619Z,13.2
2022-12-15T16:43:06.457Z,12.1
2022-12-15T16:45:06.354Z,13.4
2022-12-15T16:47:06.250Z,13.1
2022-12-15T16:49:06.244Z,15.3
2022-12-15T16:51:06.045Z,21.7
2022-12-15T16:53:09.456Z,20.6
2022-12-15T16:55:09.333Z,19.1
2022-12-15T16:57:09.243Z,18.5
2022-12-15T16:59:31.979Z,18.1
2022-12-15T17:01:11.646Z,16
2022-12-15T17:03:11.688Z,19.5
2022-12-15T17:07:19.507Z,18.2
2022-12-15T17:09:13.706Z,19.1
2022-12-15T17:11:16.105Z,17.7
2022-12-15T17:13:15.988Z,14.7
2022-12-15T17:15:15.932Z,15.7
2022-12-15T17:17:18.357Z,14.9
2022-12-15T17:19:21.357Z,14.4
2022-12-15T17:21:18.135Z,15.4
2022-12-15T17:23:20.568Z,14
2022-12-15T17:25:37.519Z,14.2
2022-12-15T17:27:20.357Z,12.5
2022-12-15T17:29:22.882Z,15.4
2022-12-15T17:31:22.791Z,14.3
2022-12-15T17:35:25.031Z,16.8
2022-12-15T17:37:26.946Z,15.9
2022-12-15T17:39:24.830Z,13.3
2022-12-15T17:41:57.916Z,12.9
2022-12-15T17:43:32.077Z,14.2
2022-12-15T17:45:27.083Z,16
2022-12-15T17:47:29.492Z,12.6
2022-12-15T17:49:34.669Z,12.6
2022-12-15T17:51:29.265Z,14.4
2022-12-15T18:00:20.357Z,11.2
2022-12-15T18:04:20.235Z,11.7
2022-12-15T18:06:22.595Z,12.1
2022-12-15T18:08:22.490Z,15.3
2022-12-15T18:10:22.373Z,12.9
2022-12-15T18:12:24.844Z,13.2
2022-12-15T18:14:24.744Z,12.6
2022-12-15T18:16:24.648Z,11.9
2022-12-15T18:18:27.005Z,15.7
2022-12-15T18:20:26.931Z,15.7
2022-12-15T18:22:26.802Z,14.6
2022-12-15T18:30:31.447Z,11.7
2022-12-15T18:32:31.379Z,13.9
2022-12-15T18:38:33.563Z,14.7
2022-12-15T18:40:33.452Z,14.7
2022-12-15T18:42:35.864Z,17.3
2022-12-15T18:44:35.773Z,22.3
2022-12-15T18:46:35.687Z,15.2
2022-12-15T18:48:38.088Z,14.5
2022-12-15T18:50:37.986Z,18.2
2022-12-15T18:52:37.887Z,15.8
2022-12-15T18:54:40.311Z,14.4
2022-12-15T18:56:40.208Z,9.2
2022-12-15T18:58:40.108Z,14.3
2022-12-15T19:00:42.570Z,16.6
2022-12-15T19:02:42.551Z,13.4
2022-12-15T19:04:42.285Z,11
2022-12-15T19:06:44.758Z,14.7
2022-12-15T19:10:44.500Z,15.5
2022-12-15T19:12:46.916Z,15.3
2022-12-15T19:14:46.830Z,12.8
2022-12-15T19:16:46.812Z,12.7
2022-12-15T19:18:49.187Z,12.5
2022-12-15T19:20:49.064Z,16.3
2022-12-15T19:22:48.942Z,14.8
2022-12-15T19:28:51.174Z,15.5
2022-12-15T19:30:53.609Z,15.6
2022-12-15T19:36:55.840Z,13.9
2022-12-15T19:38:55.739Z,16.8
2022-12-15T19:51:06.038Z,16.5
2022-12-15T19:53:05.951Z,13.3
2022-12-15T19:57:08.275Z,19
2022-12-15T19:59:08.152Z,13.2
2022-12-15T20:01:10.653Z,19.4
2022-12-15T20:03:10.685Z,11.5
2022-12-15T20:05:10.354Z,18.3
2022-12-15T20:07:12.806Z,18.9
2022-12-15T20:09:12.722Z,17.7
2022-12-15T20:11:12.611Z,14.7
2022-12-15T20:13:15.048Z,18
2022-12-15T20:15:15.765Z,16.6
2022-12-15T20:17:14.818Z,21.2
2022-12-15T20:19:17.252Z,15.2
2022-12-15T20:21:22.081Z,19.9
2022-12-15T20:23:17.074Z,17.3
2022-12-15T20:25:19.499Z,20.1
2022-12-15T20:27:19.387Z,20
2022-12-15T20:29:19.288Z,14.8
2022-12-15T20:31:21.784Z,15.9
2022-12-15T20:33:21.579Z,17.8
2022-12-15T20:35:21.500Z,17.7
2022-12-15T20:37:23.956Z,18.7
2022-12-15T20:39:23.846Z,15
2022-12-15T20:41:23.741Z,18.3
2022-12-15T20:43:26.174Z,19
2022-12-15T20:45:26.053Z,16.7
2022-12-15T20:47:25.958Z,18.3
2022-12-15T20:49:28.423Z,19.7
2022-12-15T20:53:28.206Z,14.1
2022-12-15T20:55:30.688Z,16
2022-12-15T20:57:30.570Z,16.5
2022-12-15T20:59:30.450Z,19.2
2022-12-15T21:01:33.187Z,18.8
2022-12-15T21:03:33.105Z,18.7
2022-12-15T21:05:32.703Z,14.8
2022-12-15T21:07:35.129Z,19.8
2022-12-15T21:09:35.047Z,16.4
2022-12-15T21:11:34.919Z,15.6
2022-12-15T21:13:37.387Z,27.9
2022-12-15T21:15:37.262Z,21.7
2022-12-15T21:17:41.651Z,15.6
2022-12-15T21:21:39.486Z,15.1
2022-12-15T21:23:42.735Z,14.2
2022-12-15T21:25:41.823Z,16.4
2022-12-15T21:27:41.742Z,12.8
2022-12-15T21:29:41.629Z,12.8
2022-12-15T21:31:44.089Z,15.2
2022-12-15T21:33:43.980Z,14.6
2022-12-15T21:35:43.880Z,17.2
2022-12-15T21:42:49.804Z,17
2022-12-15T21:44:49.697Z,16.5
2022-12-15T21:46:52.135Z,14.1
2022-12-15T21:48:52.032Z,13.5
2022-12-15T21:50:51.922Z,12.6
2022-12-15T21:52:54.354Z,15.6
2022-12-15T21:58:56.600Z,14.6
2022-12-15T22:00:56.502Z,13
2022-12-15T22:02:56.484Z,13.7
2022-12-15T22:04:58.789Z,17.7
2022-12-15T22:06:58.688Z,21.3
2022-12-15T22:08:58.582Z,16.1
2022-12-15T22:11:01.020Z,10.6
2022-12-15T22:13:00.929Z,21.1
2022-12-15T22:15:00.801Z,24.7
2022-12-15T22:19:03.161Z,17.9
2022-12-15T22:21:03.033Z,16.5
2022-12-15T22:23:05.482Z,13.2
2022-12-15T22:25:05.375Z,13.6
2022-12-15T22:27:05.259Z,14.5
2022-12-15T22:31:07.669Z,17
2022-12-15T22:33:07.460Z,15
2022-12-15T22:35:09.953Z,15.6
2022-12-15T22:37:09.813Z,18.4
2022-12-15T22:39:09.724Z,14.4
2022-12-15T22:41:12.162Z,15.3
2022-12-15T22:43:12.066Z,16.7
2022-12-15T22:45:11.967Z,15.3
2022-12-15T22:53:16.557Z,15.6
2022-12-15T22:55:16.494Z,15
2022-12-15T22:57:16.375Z,14.8
2022-12-15T22:59:18.818Z,15.2
2022-12-15T23:01:18.786Z,15.2
2022-12-15T23:03:18.692Z,14.2
2022-12-15T23:05:21.047Z,14.6
2022-12-15T23:07:20.926Z,16.2
2022-12-15T23:09:20.799Z,14.8
2022-12-15T23:11:23.233Z,17
2022-12-15T23:13:23.159Z,18.2
2022-12-15T23:15:23.059Z,15.3
2022-12-15T23:17:25.470Z,12.3
2022-12-15T23:19:25.373Z,13.5
2022-12-15T23:21:25.276Z,15
2022-12-15T23:23:27.715Z,17.9
2022-12-15T23:25:27.629Z,14
2022-12-15T23:27:27.530Z,16.5
2022-12-15T23:29:29.962Z,16.3
2022-12-15T23:31:29.983Z,14.9
2022-12-15T23:33:30.089Z,15.9
2022-12-15T23:35:32.154Z,19
2022-12-15T23:37:32.115Z,15.9
2022-12-15T23:39:31.987Z,14.8
2022-12-15T23:41:34.372Z,15.2
2022-12-15T23:43:34.679Z,17.2
2022-12-15T23:45:34.160Z,18.2
2022-12-15T23:53:41.467Z,12.9
